sensor_id;sensor_type;location;lat;lon;timestamp;P1;durP1;ratioP1;P2;durP2;ratioP2
22005;SDS011;11167;46.988;15.470;2023-05-10T00:01:52;3.12;;;2.25;;
22005;SDS011;11167;46.988;15.470;2023-05-10T00:03:54;3.37;;;2.58;;
22005;SDS011;11167;46.988;15.470;2023-05-10T00:05:55;3.90;;;2.40;;
22005;SDS011;11167;46.988;15.470;2023-05-10T00:07:57;2.55;;;2.35;;
22005;SDS011;11167;46.988;15.470;2023-05-10T00:09:58;2.92;;;2.10;;
22005;SDS011;11167;46.988;15.470;2023-05-10T00:11:59;4.92;;;2.37;;
22005;SDS011;11167;46.988;15.470;2023-05-10T00:14:00;2.30;;;2.10;;
22005;SDS011;11167;46.988;15.470;2023-05-10T00:16:01;2.83;;;2.12;;
22005;SDS011;11167;46.988;15.470;2023-05-10T00:18:02;2.87;;;2.17;;
22005;SDS011;11167;46.988;15.470;2023-05-10T00:20:04;2.42;;;2.22;;
22005;SDS011;11167;46.988;15.470;2023-05-10T00:22:05;2.95;;;2.15;;
22005;SDS011;11167;46.988;15.470;2023-05-10T00:24:06;3.02;;;2.50;;
22005;SDS011;11167;46.988;15.470;2023-05-10T00:26:07;2.75;;;2.20;;
22005;SDS011;11167;46.988;15.470;2023-05-10T00:28:08;2.42;;;2.22;;
22005;SDS011;11167;46.988;15.470;2023-05-10T00:30:10;2.58;;;2.22;;
22005;SDS011;11167;46.988;15.470;2023-05-10T00:32:11;2.67;;;2.05;;
22005;SDS011;11167;46.988;15.470;2023-05-10T00:34:12;2.27;;;2.05;;
22005;SDS011;11167;46.988;15.470;2023-05-10T00:36:13;2.22;;;1.75;;
22005;SDS011;11167;46.988;15.470;2023-05-10T00:38:14;2.37;;;2.17;;
22005;SDS011;11167;46.988;15.470;2023-05-10T00:40:15;2.40;;;2.20;;
22005;SDS011;11167;46.988;15.470;2023-05-10T00:42:16;3.00;;;2.15;;
22005;SDS011;11167;46.988;15.470;2023-05-10T00:44:18;2.92;;;2.08;;
22005;SDS011;11167;46.988;15.470;2023-05-10T00:46:19;2.58;;;2.37;;
22005;SDS011;11167;46.988;15.470;2023-05-10T00:48:20;2.42;;;2.22;;
22005;SDS011;11167;46.988;15.470;2023-05-10T00:50:22;2.35;;;2.02;;
22005;SDS011;11167;46.988;15.470;2023-05-10T00:52:25;3.25;;;2.10;;
22005;SDS011;11167;46.988;15.470;2023-05-10T00:54:26;2.60;;;2.25;;
22005;SDS011;11167;46.988;15.470;2023-05-10T00:56:27;3.25;;;2.30;;
22005;SDS011;11167;46.988;15.470;2023-05-10T00:58:30;2.70;;;2.42;;
22005;SDS011;11167;46.988;15.470;2023-05-10T01:00:32;2.22;;;2.02;;
22005;SDS011;11167;46.988;15.470;2023-05-10T01:02:34;2.70;;;2.40;;
22005;SDS011;11167;46.988;15.470;2023-05-10T01:04:37;2.87;;;2.30;;
22005;SDS011;11167;46.988;15.470;2023-05-10T01:06:42;2.60;;;2.40;;
22005;SDS011;11167;46.988;15.470;2023-05-10T01:10:44;2.72;;;2.30;;
22005;SDS011;11167;46.988;15.470;2023-05-10T01:12:46;2.58;;;2.12;;
22005;SDS011;11167;46.988;15.470;2023-05-10T01:14:48;2.20;;;2.00;;
22005;SDS011;11167;46.988;15.470;2023-05-10T01:16:49;2.50;;;2.30;;
22005;SDS011;11167;46.988;15.470;2023-05-10T01:18:50;2.30;;;2.10;;
22005;SDS011;11167;46.988;15.470;2023-05-10T01:20:57;2.50;;;2.20;;
22005;SDS011;11167;46.988;15.470;2023-05-10T01:35:22;4.53;;;2.42;;
22005;SDS011;11167;46.988;15.470;2023-05-10T01:37:50;2.15;;;1.95;;
22005;SDS011;11167;46.988;15.470;2023-05-10T01:46:10;2.52;;;2.33;;
22005;SDS011;11167;46.988;15.470;2023-05-10T01:48:18;5.53;;;2.27;;
22005;SDS011;11167;46.988;15.470;2023-05-10T01:50:22;2.50;;;2.22;;
22005;SDS011;11167;46.988;15.470;2023-05-10T01:52:27;2.30;;;2.00;;
22005;SDS011;11167;46.988;15.470;2023-05-10T01:54:42;2.47;;;2.00;;
22005;SDS011;11167;46.988;15.470;2023-05-10T01:59:11;2.00;;;1.80;;
22005;SDS011;11167;46.988;15.470;2023-05-10T02:01:14;3.12;;;2.60;;
22005;SDS011;11167;46.988;15.470;2023-05-10T02:03:16;2.55;;;1.90;;
22005;SDS011;11167;46.988;15.470;2023-05-10T02:05:21;2.42;;;2.22;;
22005;SDS011;11167;46.988;15.470;2023-05-10T02:07:24;2.45;;;2.05;;
22005;SDS011;11167;46.988;15.470;2023-05-10T02:11:30;2.95;;;2.20;;
22005;SDS011;11167;46.988;15.470;2023-05-10T02:13:32;4.10;;;2.15;;
22005;SDS011;11167;46.988;15.470;2023-05-10T02:15:35;2.67;;;2.20;;
22005;SDS011;11167;46.988;15.470;2023-05-10T02:17:39;3.35;;;2.10;;
22005;SDS011;11167;46.988;15.470;2023-05-10T02:19:42;2.47;;;2.10;;
22005;SDS011;11167;46.988;15.470;2023-05-10T02:21:45;2.37;;;2.12;;
22005;SDS011;11167;46.988;15.470;2023-05-10T02:23:48;2.20;;;2.00;;
22005;SDS011;11167;46.988;15.470;2023-05-10T02:25:52;2.12;;;1.92;;
22005;SDS011;11167;46.988;15.470;2023-05-10T02:27:55;3.08;;;2.25;;
22005;SDS011;11167;46.988;15.470;2023-05-10T02:29:58;2.27;;;2.08;;
22005;SDS011;11167;46.988;15.470;2023-05-10T02:32:00;2.50;;;2.30;;
22005;SDS011;11167;46.988;15.470;2023-05-10T02:34:02;2.35;;;2.15;;
22005;SDS011;11167;46.988;15.470;2023-05-10T02:36:10;3.70;;;2.00;;
22005;SDS011;11167;46.988;15.470;2023-05-10T02:38:13;2.22;;;2.02;;
22005;SDS011;11167;46.988;15.470;2023-05-10T02:40:15;2.15;;;1.95;;
22005;SDS011;11167;46.988;15.470;2023-05-10T02:42:18;2.40;;;2.02;;
22005;SDS011;11167;46.988;15.470;2023-05-10T02:44:22;2.30;;;2.10;;
22005;SDS011;11167;46.988;15.470;2023-05-10T02:46:24;3.20;;;2.33;;
22005;SDS011;11167;46.988;15.470;2023-05-10T02:48:25;2.92;;;2.15;;
22005;SDS011;11167;46.988;15.470;2023-05-10T02:50:27;2.47;;;2.17;;
22005;SDS011;11167;46.988;15.470;2023-05-10T02:52:40;2.87;;;2.15;;
22005;SDS011;11167;46.988;15.470;2023-05-10T02:54:44;4.58;;;2.30;;
22005;SDS011;11167;46.988;15.470;2023-05-10T02:56:54;2.60;;;1.95;;
22005;SDS011;11167;46.988;15.470;2023-05-10T02:58:53;3.15;;;2.40;;
22005;SDS011;11167;46.988;15.470;2023-05-10T03:00:55;2.77;;;2.20;;
22005;SDS011;11167;46.988;15.470;2023-05-10T03:02:56;3.15;;;2.35;;
22005;SDS011;11167;46.988;15.470;2023-05-10T03:04:57;3.02;;;2.40;;
22005;SDS011;11167;46.988;15.470;2023-05-10T03:06:58;3.27;;;2.30;;
22005;SDS011;11167;46.988;15.470;2023-05-10T03:09:00;2.40;;;2.20;;
22005;SDS011;11167;46.988;15.470;2023-05-10T03:13:36;3.42;;;2.70;;
22005;SDS011;11167;46.988;15.470;2023-05-10T03:15:56;3.10;;;2.62;;
22005;SDS011;11167;46.988;15.470;2023-05-10T03:17:56;3.02;;;2.65;;
22005;SDS011;11167;46.988;15.470;2023-05-10T03:20:03;2.40;;;2.20;;
22005;SDS011;11167;46.988;15.470;2023-05-10T03:22:08;3.20;;;2.50;;
22005;SDS011;11167;46.988;15.470;2023-05-10T03:28:27;2.87;;;2.50;;
22005;SDS011;11167;46.988;15.470;2023-05-10T03:30:29;2.87;;;2.30;;
22005;SDS011;11167;46.988;15.470;2023-05-10T03:32:31;2.52;;;2.30;;
22005;SDS011;11167;46.988;15.470;2023-05-10T03:34:33;2.90;;;2.45;;
22005;SDS011;11167;46.988;15.470;2023-05-10T03:36:34;2.65;;;2.30;;
22005;SDS011;11167;46.988;15.470;2023-05-10T03:38:36;2.45;;;2.25;;
22005;SDS011;11167;46.988;15.470;2023-05-10T03:40:37;3.27;;;2.50;;
22005;SDS011;11167;46.988;15.470;2023-05-10T03:42:39;2.92;;;2.27;;
22005;SDS011;11167;46.988;15.470;2023-05-10T03:44:41;2.58;;;2.33;;
22005;SDS011;11167;46.988;15.470;2023-05-10T03:46:42;3.20;;;2.42;;
22005;SDS011;11167;46.988;15.470;2023-05-10T03:48:43;2.35;;;2.15;;
22005;SDS011;11167;46.988;15.470;2023-05-10T03:50:44;2.50;;;2.30;;
22005;SDS011;11167;46.988;15.470;2023-05-10T03:52:45;2.40;;;2.20;;
22005;SDS011;11167;46.988;15.470;2023-05-10T03:54:46;2.67;;;2.30;;
22005;SDS011;11167;46.988;15.470;2023-05-10T03:56:47;3.10;;;2.47;;
22005;SDS011;11167;46.988;15.470;2023-05-10T03:58:48;2.70;;;2.50;;
22005;SDS011;11167;46.988;15.470;2023-05-10T04:00:50;2.52;;;2.30;;
22005;SDS011;11167;46.988;15.470;2023-05-10T04:02:51;2.58;;;2.15;;
22005;SDS011;11167;46.988;15.470;2023-05-10T04:04:53;3.08;;;2.47;;
22005;SDS011;11167;46.988;15.470;2023-05-10T04:06:53;2.85;;;2.30;;
22005;SDS011;11167;46.988;15.470;2023-05-10T04:08:55;2.87;;;2.50;;
22005;SDS011;11167;46.988;15.470;2023-05-10T04:11:06;3.00;;;2.40;;
22005;SDS011;11167;46.988;15.470;2023-05-10T04:13:08;4.35;;;2.50;;
22005;SDS011;11167;46.988;15.470;2023-05-10T04:15:09;3.22;;;2.50;;
22005;SDS011;11167;46.988;15.470;2023-05-10T04:17:10;2.60;;;2.30;;
22005;SDS011;11167;46.988;15.470;2023-05-10T04:19:12;2.95;;;2.50;;
22005;SDS011;11167;46.988;15.470;2023-05-10T04:21:13;2.85;;;2.52;;
22005;SDS011;11167;46.988;15.470;2023-05-10T04:23:14;3.80;;;2.52;;
22005;SDS011;11167;46.988;15.470;2023-05-10T04:25:17;2.65;;;2.45;;
22005;SDS011;11167;46.988;15.470;2023-05-10T04:27:18;2.90;;;2.60;;
22005;SDS011;11167;46.988;15.470;2023-05-10T04:29:20;3.95;;;2.33;;
22005;SDS011;11167;46.988;15.470;2023-05-10T04:31:21;2.80;;;2.40;;
22005;SDS011;11167;46.988;15.470;2023-05-10T04:33:22;2.92;;;2.45;;
22005;SDS011;11167;46.988;15.470;2023-05-10T04:35:23;2.87;;;2.30;;
22005;SDS011;11167;46.988;15.470;2023-05-10T04:37:24;3.98;;;2.72;;
22005;SDS011;11167;46.988;15.470;2023-05-10T04:41:55;3.25;;;2.67;;
22005;SDS011;11167;46.988;15.470;2023-05-10T04:43:56;2.47;;;2.27;;
22005;SDS011;11167;46.988;15.470;2023-05-10T04:45:57;3.25;;;2.47;;
22005;SDS011;11167;46.988;15.470;2023-05-10T04:47:58;3.40;;;2.58;;
22005;SDS011;11167;46.988;15.470;2023-05-10T04:49:59;4.95;;;2.77;;
22005;SDS011;11167;46.988;15.470;2023-05-10T04:52:01;3.30;;;2.60;;
22005;SDS011;11167;46.988;15.470;2023-05-10T04:54:02;2.42;;;2.08;;
22005;SDS011;11167;46.988;15.470;2023-05-10T04:56:03;2.65;;;2.37;;
22005;SDS011;11167;46.988;15.470;2023-05-10T04:58:05;2.72;;;2.50;;
22005;SDS011;11167;46.988;15.470;2023-05-10T05:00:06;2.87;;;2.45;;
22005;SDS011;11167;46.988;15.470;2023-05-10T05:02:07;2.87;;;2.42;;
22005;SDS011;11167;46.988;15.470;2023-05-10T05:04:08;2.98;;;2.52;;
22005;SDS011;11167;46.988;15.470;2023-05-10T05:06:09;2.35;;;2.15;;
22005;SDS011;11167;46.988;15.470;2023-05-10T05:08:10;2.83;;;2.30;;
22005;SDS011;11167;46.988;15.470;2023-05-10T05:10:12;2.92;;;2.62;;
22005;SDS011;11167;46.988;15.470;2023-05-10T05:12:13;3.02;;;2.30;;
22005;SDS011;11167;46.988;15.470;2023-05-10T05:14:14;2.62;;;2.42;;
22005;SDS011;11167;46.988;15.470;2023-05-10T05:16:16;3.35;;;2.70;;
22005;SDS011;11167;46.988;15.470;2023-05-10T05:18:17;3.45;;;2.33;;
22005;SDS011;11167;46.988;15.470;2023-05-10T05:20:18;2.50;;;2.20;;
22005;SDS011;11167;46.988;15.470;2023-05-10T05:22:19;3.95;;;2.27;;
22005;SDS011;11167;46.988;15.470;2023-05-10T05:24:22;2.80;;;2.10;;
22005;SDS011;11167;46.988;15.470;2023-05-10T05:26:23;2.72;;;2.37;;
22005;SDS011;11167;46.988;15.470;2023-05-10T05:28:24;3.47;;;2.58;;
22005;SDS011;11167;46.988;15.470;2023-05-10T05:30:26;2.67;;;2.42;;
22005;SDS011;11167;46.988;15.470;2023-05-10T05:32:28;2.90;;;2.30;;
22005;SDS011;11167;46.988;15.470;2023-05-10T05:34:29;2.60;;;2.08;;
22005;SDS011;11167;46.988;15.470;2023-05-10T05:36:30;3.77;;;2.40;;
22005;SDS011;11167;46.988;15.470;2023-05-10T05:38:32;3.27;;;2.25;;
22005;SDS011;11167;46.988;15.470;2023-05-10T05:40:33;2.75;;;2.47;;
22005;SDS011;11167;46.988;15.470;2023-05-10T05:42:34;3.55;;;3.08;;
22005;SDS011;11167;46.988;15.470;2023-05-10T05:44:35;3.47;;;3.00;;
22005;SDS011;11167;46.988;15.470;2023-05-10T05:46:36;3.37;;;3.00;;
22005;SDS011;11167;46.988;15.470;2023-05-10T05:48:37;4.17;;;3.25;;
22005;SDS011;11167;46.988;15.470;2023-05-10T05:50:38;3.42;;;2.92;;
22005;SDS011;11167;46.988;15.470;2023-05-10T05:52:39;3.30;;;3.00;;
22005;SDS011;11167;46.988;15.470;2023-05-10T05:54:40;3.67;;;3.30;;
22005;SDS011;11167;46.988;15.470;2023-05-10T05:56:41;4.35;;;3.25;;
22005;SDS011;11167;46.988;15.470;2023-05-10T05:58:42;3.72;;;3.17;;
22005;SDS011;11167;46.988;15.470;2023-05-10T06:00:44;4.12;;;3.40;;
22005;SDS011;11167;46.988;15.470;2023-05-10T06:02:45;3.52;;;3.17;;
22005;SDS011;11167;46.988;15.470;2023-05-10T06:04:46;5.92;;;4.00;;
22005;SDS011;11167;46.988;15.470;2023-05-10T06:06:47;3.85;;;3.33;;
22005;SDS011;11167;46.988;15.470;2023-05-10T06:08:48;4.67;;;3.52;;
22005;SDS011;11167;46.988;15.470;2023-05-10T06:10:49;3.55;;;3.22;;
22005;SDS011;11167;46.988;15.470;2023-05-10T06:12:50;5.65;;;3.30;;
22005;SDS011;11167;46.988;15.470;2023-05-10T06:14:52;5.28;;;3.42;;
22005;SDS011;11167;46.988;15.470;2023-05-10T06:16:53;4.80;;;3.45;;
22005;SDS011;11167;46.988;15.470;2023-05-10T06:18:54;6.78;;;3.33;;
22005;SDS011;11167;46.988;15.470;2023-05-10T06:20:55;4.40;;;3.52;;
22005;SDS011;11167;46.988;15.470;2023-05-10T06:22:58;4.10;;;3.33;;
22005;SDS011;11167;46.988;15.470;2023-05-10T06:24:59;4.87;;;3.15;;
22005;SDS011;11167;46.988;15.470;2023-05-10T06:27:00;4.22;;;3.15;;
22005;SDS011;11167;46.988;15.470;2023-05-10T06:29:01;3.35;;;3.02;;
22005;SDS011;11167;46.988;15.470;2023-05-10T06:31:02;5.55;;;3.30;;
22005;SDS011;11167;46.988;15.470;2023-05-10T06:33:03;5.30;;;3.08;;
22005;SDS011;11167;46.988;15.470;2023-05-10T06:35:04;4.58;;;3.12;;
22005;SDS011;11167;46.988;15.470;2023-05-10T06:37:05;7.62;;;3.80;;
22005;SDS011;11167;46.988;15.470;2023-05-10T06:39:06;5.30;;;2.87;;
22005;SDS011;11167;46.988;15.470;2023-05-10T06:41:07;4.75;;;3.10;;
22005;SDS011;11167;46.988;15.470;2023-05-10T06:43:09;6.35;;;3.90;;
22005;SDS011;11167;46.988;15.470;2023-05-10T06:45:10;5.17;;;3.58;;
22005;SDS011;11167;46.988;15.470;2023-05-10T06:47:12;4.92;;;3.33;;
22005;SDS011;11167;46.988;15.470;2023-05-10T06:49:13;3.90;;;3.40;;
22005;SDS011;11167;46.988;15.470;2023-05-10T06:51:14;5.00;;;3.50;;
22005;SDS011;11167;46.988;15.470;2023-05-10T06:53:15;7.53;;;3.60;;
22005;SDS011;11167;46.988;15.470;2023-05-10T06:55:16;4.50;;;3.30;;
22005;SDS011;11167;46.988;15.470;2023-05-10T06:57:17;4.33;;;3.58;;
22005;SDS011;11167;46.988;15.470;2023-05-10T06:59:18;5.55;;;3.17;;
22005;SDS011;11167;46.988;15.470;2023-05-10T07:01:19;6.12;;;3.10;;
22005;SDS011;11167;46.988;15.470;2023-05-10T07:03:21;3.47;;;2.98;;
22005;SDS011;11167;46.988;15.470;2023-05-10T07:05:22;5.83;;;3.20;;
22005;SDS011;11167;46.988;15.470;2023-05-10T07:07:23;4.62;;;3.17;;
22005;SDS011;11167;46.988;15.470;2023-05-10T07:09:24;4.90;;;2.87;;
22005;SDS011;11167;46.988;15.470;2023-05-10T07:11:25;4.62;;;3.37;;
22005;SDS011;11167;46.988;15.470;2023-05-10T07:13:27;4.87;;;3.25;;
22005;SDS011;11167;46.988;15.470;2023-05-10T07:15:29;4.00;;;3.20;;
22005;SDS011;11167;46.988;15.470;2023-05-10T07:17:30;4.33;;;3.27;;
22005;SDS011;11167;46.988;15.470;2023-05-10T07:19:31;3.95;;;3.08;;
22005;SDS011;11167;46.988;15.470;2023-05-10T07:21:33;4.03;;;3.00;;
22005;SDS011;11167;46.988;15.470;2023-05-10T07:23:44;6.83;;;3.70;;
22005;SDS011;11167;46.988;15.470;2023-05-10T07:25:47;3.62;;;2.92;;
22005;SDS011;11167;46.988;15.470;2023-05-10T07:29:52;4.60;;;3.25;;
22005;SDS011;11167;46.988;15.470;2023-05-10T07:31:56;3.77;;;3.10;;
22005;SDS011;11167;46.988;15.470;2023-05-10T07:33:57;3.85;;;3.30;;
22005;SDS011;11167;46.988;15.470;2023-05-10T07:35:58;4.00;;;3.37;;
22005;SDS011;11167;46.988;15.470;2023-05-10T07:38:00;4.53;;;3.55;;
22005;SDS011;11167;46.988;15.470;2023-05-10T07:40:02;3.67;;;3.00;;
22005;SDS011;11167;46.988;15.470;2023-05-10T07:42:04;4.35;;;3.08;;
22005;SDS011;11167;46.988;15.470;2023-05-10T07:44:06;4.80;;;3.52;;
22005;SDS011;11167;46.988;15.470;2023-05-10T07:46:07;5.50;;;3.62;;
22005;SDS011;11167;46.988;15.470;2023-05-10T07:48:10;4.60;;;3.10;;
22005;SDS011;11167;46.988;15.470;2023-05-10T07:50:12;4.95;;;3.12;;
22005;SDS011;11167;46.988;15.470;2023-05-10T07:52:13;5.08;;;3.30;;
22005;SDS011;11167;46.988;15.470;2023-05-10T07:54:15;4.22;;;3.35;;
22005;SDS011;11167;46.988;15.470;2023-05-10T07:56:20;6.20;;;3.72;;
22005;SDS011;11167;46.988;15.470;2023-05-10T07:58:23;4.47;;;3.37;;
22005;SDS011;11167;46.988;15.470;2023-05-10T08:00:24;4.12;;;3.40;;
22005;SDS011;11167;46.988;15.470;2023-05-10T08:02:26;5.40;;;3.62;;
22005;SDS011;11167;46.988;15.470;2023-05-10T08:04:27;4.95;;;3.75;;
22005;SDS011;11167;46.988;15.470;2023-05-10T08:06:29;4.90;;;3.60;;
22005;SDS011;11167;46.988;15.470;2023-05-10T08:08:30;4.58;;;3.55;;
22005;SDS011;11167;46.988;15.470;2023-05-10T08:10:32;5.08;;;3.50;;
22005;SDS011;11167;46.988;15.470;2023-05-10T08:12:33;4.35;;;3.47;;
22005;SDS011;11167;46.988;15.470;2023-05-10T08:14:34;5.08;;;3.62;;
22005;SDS011;11167;46.988;15.470;2023-05-10T08:16:36;4.20;;;3.70;;
22005;SDS011;11167;46.988;15.470;2023-05-10T08:18:38;5.22;;;3.60;;
22005;SDS011;11167;46.988;15.470;2023-05-10T08:20:40;5.53;;;3.65;;
22005;SDS011;11167;46.988;15.470;2023-05-10T08:22:41;3.98;;;3.58;;
22005;SDS011;11167;46.988;15.470;2023-05-10T08:24:42;4.00;;;3.50;;
22005;SDS011;11167;46.988;15.470;2023-05-10T08:26:43;5.10;;;3.55;;
22005;SDS011;11167;46.988;15.470;2023-05-10T08:28:44;3.87;;;3.30;;
22005;SDS011;11167;46.988;15.470;2023-05-10T08:30:45;4.58;;;3.67;;
22005;SDS011;11167;46.988;15.470;2023-05-10T08:32:47;4.92;;;3.80;;
22005;SDS011;11167;46.988;15.470;2023-05-10T08:34:48;4.45;;;3.10;;
22005;SDS011;11167;46.988;15.470;2023-05-10T08:36:49;5.33;;;3.55;;
22005;SDS011;11167;46.988;15.470;2023-05-10T08:38:50;4.55;;;3.33;;
22005;SDS011;11167;46.988;15.470;2023-05-10T08:40:55;3.77;;;3.22;;
22005;SDS011;11167;46.988;15.470;2023-05-10T08:43:04;5.33;;;3.40;;
22005;SDS011;11167;46.988;15.470;2023-05-10T08:45:08;4.20;;;3.62;;
22005;SDS011;11167;46.988;15.470;2023-05-10T08:47:10;4.57;;;3.40;;
22005;SDS011;11167;46.988;15.470;2023-05-10T08:49:13;6.12;;;3.30;;
22005;SDS011;11167;46.988;15.470;2023-05-10T08:51:20;4.72;;;3.75;;
22005;SDS011;11167;46.988;15.470;2023-05-10T08:53:24;3.55;;;3.25;;
22005;SDS011;11167;46.988;15.470;2023-05-10T08:55:27;3.92;;;3.27;;
22005;SDS011;11167;46.988;15.470;2023-05-10T08:57:28;4.58;;;3.50;;
22005;SDS011;11167;46.988;15.470;2023-05-10T08:59:29;3.77;;;2.87;;
22005;SDS011;11167;46.988;15.470;2023-05-10T09:01:31;3.22;;;2.92;;
22005;SDS011;11167;46.988;15.470;2023-05-10T09:03:33;5.55;;;3.37;;
22005;SDS011;11167;46.988;15.470;2023-05-10T09:05:34;3.75;;;3.15;;
22005;SDS011;11167;46.988;15.470;2023-05-10T09:07:36;4.12;;;3.27;;
22005;SDS011;11167;46.988;15.470;2023-05-10T09:09:37;3.45;;;3.10;;
22005;SDS011;11167;46.988;15.470;2023-05-10T09:11:39;3.58;;;3.10;;
22005;SDS011;11167;46.988;15.470;2023-05-10T09:13:40;4.00;;;3.17;;
22005;SDS011;11167;46.988;15.470;2023-05-10T09:15:43;3.98;;;3.10;;
22005;SDS011;11167;46.988;15.470;2023-05-10T09:17:45;3.98;;;2.80;;
22005;SDS011;11167;46.988;15.470;2023-05-10T09:19:48;2.83;;;2.50;;
22005;SDS011;11167;46.988;15.470;2023-05-10T09:21:49;3.35;;;2.87;;
22005;SDS011;11167;46.988;15.470;2023-05-10T09:23:50;3.62;;;3.00;;
22005;SDS011;11167;46.988;15.470;2023-05-10T09:26:03;3.08;;;2.77;;
22005;SDS011;11167;46.988;15.470;2023-05-10T09:28:06;4.65;;;2.47;;
22005;SDS011;11167;46.988;15.470;2023-05-10T09:30:08;4.55;;;2.80;;
22005;SDS011;11167;46.988;15.470;2023-05-10T09:32:10;3.65;;;2.65;;
22005;SDS011;11167;46.988;15.470;2023-05-10T09:34:11;3.17;;;2.67;;
22005;SDS011;11167;46.988;15.470;2023-05-10T09:36:14;3.22;;;2.50;;
22005;SDS011;11167;46.988;15.470;2023-05-10T09:38:15;3.72;;;2.40;;
22005;SDS011;11167;46.988;15.470;2023-05-10T09:40:17;3.02;;;2.72;;
22005;SDS011;11167;46.988;15.470;2023-05-10T09:44:21;2.92;;;2.62;;
22005;SDS011;11167;46.988;15.470;2023-05-10T09:46:22;3.08;;;2.60;;
22005;SDS011;11167;46.988;15.470;2023-05-10T09:48:23;3.42;;;2.75;;
22005;SDS011;11167;46.988;15.470;2023-05-10T09:50:25;5.03;;;3.00;;
22005;SDS011;11167;46.988;15.470;2023-05-10T09:52:27;3.22;;;2.72;;
22005;SDS011;11167;46.988;15.470;2023-05-10T09:54:28;3.42;;;2.80;;
22005;SDS011;11167;46.988;15.470;2023-05-10T09:56:32;3.37;;;2.90;;
22005;SDS011;11167;46.988;15.470;2023-05-10T09:58:38;3.05;;;2.72;;
22005;SDS011;11167;46.988;15.470;2023-05-10T10:00:40;4.58;;;3.10;;
22005;SDS011;11167;46.988;15.470;2023-05-10T10:02:42;3.10;;;2.83;;
22005;SDS011;11167;46.988;15.470;2023-05-10T10:04:45;3.50;;;3.00;;
22005;SDS011;11167;46.988;15.470;2023-05-10T10:07:03;3.83;;;3.05;;
22005;SDS011;11167;46.988;15.470;2023-05-10T10:09:03;3.62;;;3.27;;
22005;SDS011;11167;46.988;15.470;2023-05-10T10:11:06;4.12;;;2.70;;
22005;SDS011;11167;46.988;15.470;2023-05-10T10:13:08;4.17;;;3.02;;
22005;SDS011;11167;46.988;15.470;2023-05-10T10:15:09;3.90;;;3.17;;
22005;SDS011;11167;46.988;15.470;2023-05-10T10:17:11;4.15;;;3.08;;
22005;SDS011;11167;46.988;15.470;2023-05-10T10:19:13;4.42;;;3.17;;
22005;SDS011;11167;46.988;15.470;2023-05-10T10:21:14;4.70;;;3.22;;
22005;SDS011;11167;46.988;15.470;2023-05-10T10:23:17;4.95;;;3.25;;
22005;SDS011;11167;46.988;15.470;2023-05-10T10:25:18;3.42;;;3.00;;
22005;SDS011;11167;46.988;15.470;2023-05-10T10:27:26;3.75;;;3.08;;
22005;SDS011;11167;46.988;15.470;2023-05-10T10:31:47;4.28;;;3.12;;
22005;SDS011;11167;46.988;15.470;2023-05-10T10:33:55;3.72;;;2.77;;
22005;SDS011;11167;46.988;15.470;2023-05-10T10:36:02;3.45;;;2.90;;
22005;SDS011;11167;46.988;15.470;2023-05-10T10:38:04;3.12;;;2.85;;
22005;SDS011;11167;46.988;15.470;2023-05-10T10:40:26;3.45;;;2.83;;
22005;SDS011;11167;46.988;15.470;2023-05-10T10:44:45;3.65;;;3.17;;
22005;SDS011;11167;46.988;15.470;2023-05-10T10:49:22;5.20;;;2.92;;
22005;SDS011;11167;46.988;15.470;2023-05-10T10:51:23;3.17;;;2.77;;
22005;SDS011;11167;46.988;15.470;2023-05-10T10:53:25;3.08;;;2.77;;
22005;SDS011;11167;46.988;15.470;2023-05-10T10:55:28;3.10;;;2.80;;
22005;SDS011;11167;46.988;15.470;2023-05-10T10:57:50;3.50;;;2.92;;
22005;SDS011;11167;46.988;15.470;2023-05-10T10:59:49;3.85;;;2.80;;
22005;SDS011;11167;46.988;15.470;2023-05-10T11:01:51;2.77;;;2.45;;
22005;SDS011;11167;46.988;15.470;2023-05-10T11:06:03;3.12;;;2.60;;
22005;SDS011;11167;46.988;15.470;2023-05-10T11:10:19;2.80;;;2.50;;
22005;SDS011;11167;46.988;15.470;2023-05-10T11:12:22;2.87;;;2.60;;
22005;SDS011;11167;46.988;15.470;2023-05-10T11:14:23;2.95;;;2.65;;
22005;SDS011;11167;46.988;15.470;2023-05-10T11:16:24;2.80;;;2.50;;
22005;SDS011;11167;46.988;15.470;2023-05-10T11:18:28;2.83;;;2.50;;
22005;SDS011;11167;46.988;15.470;2023-05-10T11:20:33;2.95;;;2.50;;
22005;SDS011;11167;46.988;15.470;2023-05-10T11:22:50;3.58;;;2.40;;
22005;SDS011;11167;46.988;15.470;2023-05-10T11:24:56;3.17;;;2.33;;
22005;SDS011;11167;46.988;15.470;2023-05-10T11:27:01;2.72;;;2.50;;
22005;SDS011;11167;46.988;15.470;2023-05-10T11:29:02;2.52;;;2.33;;
22005;SDS011;11167;46.988;15.470;2023-05-10T11:31:05;3.42;;;2.80;;
22005;SDS011;11167;46.988;15.470;2023-05-10T11:33:06;3.08;;;2.40;;
22005;SDS011;11167;46.988;15.470;2023-05-10T11:35:09;3.25;;;2.52;;
22005;SDS011;11167;46.988;15.470;2023-05-10T11:37:11;3.85;;;2.40;;
22005;SDS011;11167;46.988;15.470;2023-05-10T11:39:12;2.90;;;2.60;;
22005;SDS011;11167;46.988;15.470;2023-05-10T11:41:13;2.62;;;2.42;;
22005;SDS011;11167;46.988;15.470;2023-05-10T11:43:14;2.98;;;2.67;;
22005;SDS011;11167;46.988;15.470;2023-05-10T11:45:15;2.70;;;2.30;;
22005;SDS011;11167;46.988;15.470;2023-05-10T11:47:16;2.42;;;2.22;;
22005;SDS011;11167;46.988;15.470;2023-05-10T11:49:18;2.60;;;2.40;;
22005;SDS011;11167;46.988;15.470;2023-05-10T11:51:19;3.08;;;2.27;;
22005;SDS011;11167;46.988;15.470;2023-05-10T11:53:21;3.15;;;2.30;;
22005;SDS011;11167;46.988;15.470;2023-05-10T11:55:22;2.37;;;2.17;;
22005;SDS011;11167;46.988;15.470;2023-05-10T11:57:26;2.83;;;2.43;;
22005;SDS011;11167;46.988;15.470;2023-05-10T11:59:29;2.60;;;2.40;;
22005;SDS011;11167;46.988;15.470;2023-05-10T12:01:30;3.50;;;2.20;;
22005;SDS011;11167;46.988;15.470;2023-05-10T12:03:31;2.42;;;2.22;;
22005;SDS011;11167;46.988;15.470;2023-05-10T12:05:33;3.83;;;2.45;;
22005;SDS011;11167;46.988;15.470;2023-05-10T12:07:34;2.77;;;2.27;;
22005;SDS011;11167;46.988;15.470;2023-05-10T12:09:36;2.17;;;1.98;;
22005;SDS011;11167;46.988;15.470;2023-05-10T12:11:37;2.20;;;2.00;;
22005;SDS011;11167;46.988;15.470;2023-05-10T12:13:41;2.22;;;2.02;;
22005;SDS011;11167;46.988;15.470;2023-05-10T12:15:43;2.47;;;2.22;;
22005;SDS011;11167;46.988;15.470;2023-05-10T12:17:44;2.22;;;2.02;;
22005;SDS011;11167;46.988;15.470;2023-05-10T12:19:46;3.58;;;2.25;;
22005;SDS011;11167;46.988;15.470;2023-05-10T12:21:47;2.50;;;2.30;;
22005;SDS011;11167;46.988;15.470;2023-05-10T12:23:58;2.87;;;2.20;;
22005;SDS011;11167;46.988;15.470;2023-05-10T12:26:01;3.40;;;2.08;;
22005;SDS011;11167;46.988;15.470;2023-05-10T12:28:05;2.30;;;2.10;;
22005;SDS011;11167;46.988;15.470;2023-05-10T12:30:08;2.52;;;2.33;;
22005;SDS011;11167;46.988;15.470;2023-05-10T12:32:09;2.40;;;2.17;;
22005;SDS011;11167;46.988;15.470;2023-05-10T12:34:10;2.35;;;2.15;;
22005;SDS011;11167;46.988;15.470;2023-05-10T12:36:12;4.05;;;2.27;;
22005;SDS011;11167;46.988;15.470;2023-05-10T12:38:24;2.30;;;2.10;;
22005;SDS011;11167;46.988;15.470;2023-05-10T12:42:29;2.72;;;2.37;;
22005;SDS011;11167;46.988;15.470;2023-05-10T12:44:32;2.87;;;2.20;;
22005;SDS011;11167;46.988;15.470;2023-05-10T12:46:33;2.50;;;2.20;;
22005;SDS011;11167;46.988;15.470;2023-05-10T12:48:34;2.55;;;2.25;;
22005;SDS011;11167;46.988;15.470;2023-05-10T12:50:36;2.40;;;2.20;;
22005;SDS011;11167;46.988;15.470;2023-05-10T12:52:37;3.25;;;2.30;;
22005;SDS011;11167;46.988;15.470;2023-05-10T12:54:38;2.27;;;2.08;;
22005;SDS011;11167;46.988;15.470;2023-05-10T12:56:39;2.40;;;2.20;;
22005;SDS011;11167;46.988;15.470;2023-05-10T12:58:41;2.40;;;2.20;;